sensor_id;sensor_type;location;lat;lon;timestamp;P1;durP1;ratioP1;P2;durP2;ratioP2
66169;SDS011;52971;44.024;20.456;2022-10-31T00:00:18;125.38;;;77.22;;
66169;SDS011;52971;44.024;20.456;2022-10-31T00:02:43;122.78;;;76.68;;
66169;SDS011;52971;44.024;20.456;2022-10-31T00:05:09;115.95;;;75.65;;
66169;SDS011;52971;44.024;20.456;2022-10-31T00:07:34;121.65;;;77.93;;
66169;SDS011;52971;44.024;20.456;2022-10-31T00:09:59;120.95;;;77.18;;
66169;SDS011;52971;44.024;20.456;2022-10-31T00:12:25;119.70;;;76.50;;
66169;SDS011;52971;44.024;20.456;2022-10-31T00:14:51;115.60;;;74.68;;
66169;SDS011;52971;44.024;20.456;2022-10-31T00:17:16;122.70;;;75.78;;
66169;SDS011;52971;44.024;20.456;2022-10-31T00:19:42;118.47;;;74.10;;
66169;SDS011;52971;44.024;20.456;2022-10-31T00:22:08;123.63;;;76.28;;
66169;SDS011;52971;44.024;20.456;2022-10-31T00:24:33;121.00;;;75.43;;
66169;SDS011;52971;44.024;20.456;2022-10-31T00:26:59;121.22;;;74.07;;
66169;SDS011;52971;44.024;20.456;2022-10-31T00:29:24;116.88;;;72.35;;
66169;SDS011;52971;44.024;20.456;2022-10-31T00:31:49;114.28;;;72.10;;
66169;SDS011;52971;44.024;20.456;2022-10-31T00:34:15;109.00;;;69.63;;
66169;SDS011;52971;44.024;20.456;2022-10-31T00:36:40;98.40;;;64.35;;
66169;SDS011;52971;44.024;20.456;2022-10-31T00:39:05;109.95;;;68.35;;
66169;SDS011;52971;44.024;20.456;2022-10-31T00:41:31;109.25;;;67.88;;
66169;SDS011;52971;44.024;20.456;2022-10-31T00:43:56;103.95;;;67.05;;
66169;SDS011;52971;44.024;20.456;2022-10-31T00:46:22;109.32;;;64.97;;
66169;SDS011;52971;44.024;20.456;2022-10-31T00:48:47;99.15;;;63.58;;
66169;SDS011;52971;44.024;20.456;2022-10-31T00:51:12;102.78;;;65.32;;
66169;SDS011;52971;44.024;20.456;2022-10-31T00:53:38;106.50;;;64.03;;
66169;SDS011;52971;44.024;20.456;2022-10-31T00:56:03;94.82;;;61.33;;
66169;SDS011;52971;44.024;20.456;2022-10-31T00:58:29;95.68;;;61.03;;
66169;SDS011;52971;44.024;20.456;2022-10-31T01:00:55;95.57;;;61.13;;
66169;SDS011;52971;44.024;20.456;2022-10-31T01:03:24;90.72;;;59.38;;
66169;SDS011;52971;44.024;20.456;2022-10-31T01:06:10;91.05;;;61.40;;
66169;SDS011;52971;44.024;20.456;2022-10-31T01:13:33;97.85;;;60.47;;
66169;SDS011;52971;44.024;20.456;2022-10-31T01:15:59;110.22;;;65.47;;
66169;SDS011;52971;44.024;20.456;2022-10-31T01:18:25;106.60;;;67.32;;
66169;SDS011;52971;44.024;20.456;2022-10-31T01:21:08;112.70;;;67.20;;
66169;SDS011;52971;44.024;20.456;2022-10-31T01:23:39;120.55;;;70.75;;
66169;SDS011;52971;44.024;20.456;2022-10-31T01:26:06;126.40;;;71.40;;
66169;SDS011;52971;44.024;20.456;2022-10-31T01:28:38;130.98;;;75.53;;
66169;SDS011;52971;44.024;20.456;2022-10-31T01:31:08;120.05;;;70.93;;
66169;SDS011;52971;44.024;20.456;2022-10-31T01:33:34;118.72;;;66.00;;
66169;SDS011;52971;44.024;20.456;2022-10-31T01:36:01;113.53;;;65.20;;
66169;SDS011;52971;44.024;20.456;2022-10-31T01:38:35;97.80;;;58.30;;
66169;SDS011;52971;44.024;20.456;2022-10-31T01:41:01;94.18;;;57.90;;
66169;SDS011;52971;44.024;20.456;2022-10-31T01:43:41;91.13;;;56.00;;
66169;SDS011;52971;44.024;20.456;2022-10-31T01:46:20;82.95;;;53.55;;
66169;SDS011;52971;44.024;20.456;2022-10-31T01:48:51;81.80;;;53.75;;
66169;SDS011;52971;44.024;20.456;2022-10-31T01:51:19;82.25;;;49.85;;
66169;SDS011;52971;44.024;20.456;2022-10-31T01:53:48;81.78;;;51.58;;
66169;SDS011;52971;44.024;20.456;2022-10-31T01:56:15;82.03;;;52.67;;
66169;SDS011;52971;44.024;20.456;2022-10-31T01:58:42;80.95;;;52.22;;
66169;SDS011;52971;44.024;20.456;2022-10-31T02:01:11;81.10;;;51.85;;
66169;SDS011;52971;44.024;20.456;2022-10-31T02:03:38;77.68;;;52.10;;
66169;SDS011;52971;44.024;20.456;2022-10-31T02:06:06;82.55;;;51.92;;
66169;SDS011;52971;44.024;20.456;2022-10-31T02:08:38;83.55;;;54.42;;
66169;SDS011;52971;44.024;20.456;2022-10-31T02:11:05;82.07;;;54.58;;
66169;SDS011;52971;44.024;20.456;2022-10-31T02:13:32;86.25;;;55.33;;
66169;SDS011;52971;44.024;20.456;2022-10-31T02:15:59;80.78;;;52.65;;
66169;SDS011;52971;44.024;20.456;2022-10-31T02:18:25;80.00;;;52.97;;
66169;SDS011;52971;44.024;20.456;2022-10-31T02:23:52;75.53;;;50.42;;
66169;SDS011;52971;44.024;20.456;2022-10-31T02:26:43;63.80;;;43.70;;
66169;SDS011;52971;44.024;20.456;2022-10-31T02:34:47;73.43;;;47.50;;
66169;SDS011;52971;44.024;20.456;2022-10-31T02:42:46;74.18;;;45.42;;
66169;SDS011;52971;44.024;20.456;2022-10-31T02:48:19;56.20;;;36.47;;
66169;SDS011;52971;44.024;20.456;2022-10-31T02:50:59;60.53;;;37.17;;
66169;SDS011;52971;44.024;20.456;2022-10-31T02:53:32;60.35;;;37.50;;
66169;SDS011;52971;44.024;20.456;2022-10-31T02:56:00;52.80;;;33.60;;
66169;SDS011;52971;44.024;20.456;2022-10-31T02:58:31;53.13;;;31.58;;
66169;SDS011;52971;44.024;20.456;2022-10-31T03:08:45;77.90;;;48.92;;
66169;SDS011;52971;44.024;20.456;2022-10-31T03:11:29;77.68;;;47.95;;
66169;SDS011;52971;44.024;20.456;2022-10-31T03:14:12;82.32;;;49.92;;
66169;SDS011;52971;44.024;20.456;2022-10-31T03:16:59;76.20;;;48.70;;
66169;SDS011;52971;44.024;20.456;2022-10-31T03:19:30;84.00;;;49.67;;
66169;SDS011;52971;44.024;20.456;2022-10-31T03:22:04;77.93;;;50.53;;
66169;SDS011;52971;44.024;20.456;2022-10-31T03:24:35;76.78;;;49.28;;
66169;SDS011;52971;44.024;20.456;2022-10-31T03:27:03;83.13;;;48.13;;
66169;SDS011;52971;44.024;20.456;2022-10-31T03:29:33;75.25;;;48.40;;
66169;SDS011;52971;44.024;20.456;2022-10-31T03:32:06;75.15;;;47.53;;
66169;SDS011;52971;44.024;20.456;2022-10-31T03:34:35;71.67;;;46.53;;
66169;SDS011;52971;44.024;20.456;2022-10-31T03:37:03;72.03;;;46.95;;
66169;SDS011;52971;44.024;20.456;2022-10-31T03:39:32;74.78;;;47.40;;
66169;SDS011;52971;44.024;20.456;2022-10-31T03:42:04;70.72;;;46.70;;
66169;SDS011;52971;44.024;20.456;2022-10-31T03:44:33;71.50;;;45.83;;
66169;SDS011;52971;44.024;20.456;2022-10-31T03:47:01;71.28;;;45.95;;
66169;SDS011;52971;44.024;20.456;2022-10-31T03:49:28;70.35;;;45.75;;
66169;SDS011;52971;44.024;20.456;2022-10-31T03:54:44;69.03;;;46.78;;
66169;SDS011;52971;44.024;20.456;2022-10-31T03:57:21;66.63;;;46.30;;
66169;SDS011;52971;44.024;20.456;2022-10-31T03:59:57;68.78;;;44.78;;
66169;SDS011;52971;44.024;20.456;2022-10-31T04:02:30;68.70;;;46.08;;
66169;SDS011;52971;44.024;20.456;2022-10-31T04:04:59;68.03;;;44.25;;
66169;SDS011;52971;44.024;20.456;2022-10-31T04:07:27;63.58;;;41.22;;
66169;SDS011;52971;44.024;20.456;2022-10-31T04:09:55;58.58;;;39.80;;
66169;SDS011;52971;44.024;20.456;2022-10-31T04:12:22;58.30;;;39.22;;
66169;SDS011;52971;44.024;20.456;2022-10-31T04:14:51;55.30;;;39.85;;
66169;SDS011;52971;44.024;20.456;2022-10-31T04:17:18;59.90;;;39.60;;
66169;SDS011;52971;44.024;20.456;2022-10-31T04:19:46;59.88;;;40.53;;
66169;SDS011;52971;44.024;20.456;2022-10-31T04:22:11;65.60;;;43.70;;
66169;SDS011;52971;44.024;20.456;2022-10-31T04:24:37;70.90;;;45.03;;
66169;SDS011;52971;44.024;20.456;2022-10-31T04:27:05;70.15;;;45.80;;
66169;SDS011;52971;44.024;20.456;2022-10-31T04:29:30;71.85;;;44.90;;
66169;SDS011;52971;44.024;20.456;2022-10-31T04:31:56;69.72;;;46.72;;
66169;SDS011;52971;44.024;20.456;2022-10-31T04:34:21;68.78;;;45.03;;
66169;SDS011;52971;44.024;20.456;2022-10-31T04:36:46;68.13;;;45.33;;
66169;SDS011;52971;44.024;20.456;2022-10-31T04:39:12;65.10;;;43.05;;
66169;SDS011;52971;44.024;20.456;2022-10-31T04:41:37;60.03;;;40.25;;
66169;SDS011;52971;44.024;20.456;2022-10-31T04:44:03;59.28;;;38.95;;
66169;SDS011;52971;44.024;20.456;2022-10-31T04:46:28;56.75;;;38.47;;
66169;SDS011;52971;44.024;20.456;2022-10-31T04:48:54;54.03;;;38.22;;
66169;SDS011;52971;44.024;20.456;2022-10-31T04:51:19;60.88;;;39.72;;
66169;SDS011;52971;44.024;20.456;2022-10-31T04:53:45;66.03;;;42.15;;
66169;SDS011;52971;44.024;20.456;2022-10-31T04:56:10;60.15;;;39.63;;
66169;SDS011;52971;44.024;20.456;2022-10-31T04:58:36;61.83;;;39.30;;
66169;SDS011;52971;44.024;20.456;2022-10-31T05:01:01;63.80;;;40.25;;
66169;SDS011;52971;44.024;20.456;2022-10-31T05:03:27;56.72;;;38.53;;
66169;SDS011;52971;44.024;20.456;2022-10-31T05:05:52;69.38;;;40.55;;
66169;SDS011;52971;44.024;20.456;2022-10-31T05:08:17;64.30;;;40.85;;
66169;SDS011;52971;44.024;20.456;2022-10-31T05:10:43;65.90;;;41.80;;
66169;SDS011;52971;44.024;20.456;2022-10-31T05:13:08;63.60;;;41.45;;
66169;SDS011;52971;44.024;20.456;2022-10-31T05:15:34;64.57;;;41.60;;
66169;SDS011;52971;44.024;20.456;2022-10-31T05:17:59;64.28;;;42.88;;
66169;SDS011;52971;44.024;20.456;2022-10-31T05:20:26;66.55;;;42.15;;
66169;SDS011;52971;44.024;20.456;2022-10-31T05:22:53;66.88;;;41.15;;
66169;SDS011;52971;44.024;20.456;2022-10-31T05:25:21;54.15;;;33.97;;
66169;SDS011;52971;44.024;20.456;2022-10-31T05:27:49;46.00;;;29.33;;
66169;SDS011;52971;44.024;20.456;2022-10-31T05:30:17;44.92;;;26.77;;
66169;SDS011;52971;44.024;20.456;2022-10-31T05:32:46;45.88;;;25.58;;
66169;SDS011;52971;44.024;20.456;2022-10-31T05:35:14;42.75;;;26.17;;
66169;SDS011;52971;44.024;20.456;2022-10-31T05:37:41;44.95;;;27.90;;
66169;SDS011;52971;44.024;20.456;2022-10-31T05:40:08;47.67;;;26.30;;
66169;SDS011;52971;44.024;20.456;2022-10-31T05:42:34;48.22;;;26.77;;
66169;SDS011;52971;44.024;20.456;2022-10-31T05:45:00;39.30;;;25.17;;
66169;SDS011;52971;44.024;20.456;2022-10-31T05:47:26;42.67;;;26.10;;
66169;SDS011;52971;44.024;20.456;2022-10-31T05:49:52;41.83;;;27.58;;
66169;SDS011;52971;44.024;20.456;2022-10-31T05:52:17;45.97;;;28.23;;
66169;SDS011;52971;44.024;20.456;2022-10-31T05:54:43;47.92;;;28.33;;
66169;SDS011;52971;44.024;20.456;2022-10-31T05:57:09;49.70;;;27.42;;
66169;SDS011;52971;44.024;20.456;2022-10-31T05:59:34;46.92;;;28.17;;
66169;SDS011;52971;44.024;20.456;2022-10-31T06:02:00;46.17;;;30.05;;
66169;SDS011;52971;44.024;20.456;2022-10-31T06:04:25;46.55;;;28.63;;
66169;SDS011;52971;44.024;20.456;2022-10-31T06:06:51;46.50;;;28.95;;
66169;SDS011;52971;44.024;20.456;2022-10-31T06:09:16;54.38;;;32.97;;
66169;SDS011;52971;44.024;20.456;2022-10-31T06:11:41;99.68;;;54.38;;
66169;SDS011;52971;44.024;20.456;2022-10-31T06:14:07;60.15;;;36.65;;
66169;SDS011;52971;44.024;20.456;2022-10-31T06:16:33;59.17;;;38.28;;
66169;SDS011;52971;44.024;20.456;2022-10-31T06:18:58;66.47;;;39.85;;
66169;SDS011;52971;44.024;20.456;2022-10-31T06:21:24;59.50;;;36.55;;
66169;SDS011;52971;44.024;20.456;2022-10-31T06:23:49;64.47;;;38.90;;
66169;SDS011;52971;44.024;20.456;2022-10-31T06:26:15;60.45;;;37.28;;
66169;SDS011;52971;44.024;20.456;2022-10-31T06:28:40;53.58;;;32.75;;
66169;SDS011;52971;44.024;20.456;2022-10-31T06:31:06;47.22;;;31.77;;
66169;SDS011;52971;44.024;20.456;2022-10-31T06:33:32;44.53;;;30.58;;
66169;SDS011;52971;44.024;20.456;2022-10-31T06:35:58;51.10;;;31.10;;
66169;SDS011;52971;44.024;20.456;2022-10-31T06:38:24;50.03;;;31.23;;
66169;SDS011;52971;44.024;20.456;2022-10-31T06:40:50;53.42;;;31.25;;
66169;SDS011;52971;44.024;20.456;2022-10-31T06:43:16;46.83;;;28.92;;
66169;SDS011;52971;44.024;20.456;2022-10-31T06:45:41;45.00;;;28.42;;
66169;SDS011;52971;44.024;20.456;2022-10-31T06:48:07;42.30;;;27.95;;
66169;SDS011;52971;44.024;20.456;2022-10-31T06:50:32;46.60;;;26.92;;
66169;SDS011;52971;44.024;20.456;2022-10-31T06:52:58;38.75;;;27.65;;
66169;SDS011;52971;44.024;20.456;2022-10-31T06:55:24;38.92;;;28.42;;
66169;SDS011;52971;44.024;20.456;2022-10-31T06:57:54;44.35;;;28.90;;
66169;SDS011;52971;44.024;20.456;2022-10-31T07:00:21;45.38;;;29.58;;
66169;SDS011;52971;44.024;20.456;2022-10-31T07:02:57;43.88;;;30.15;;
66169;SDS011;52971;44.024;20.456;2022-10-31T07:05:26;47.72;;;31.30;;
66169;SDS011;52971;44.024;20.456;2022-10-31T07:07:53;48.55;;;29.27;;
66169;SDS011;52971;44.024;20.456;2022-10-31T07:10:19;45.42;;;28.40;;
66169;SDS011;52971;44.024;20.456;2022-10-31T07:12:45;43.75;;;28.20;;
66169;SDS011;52971;44.024;20.456;2022-10-31T07:15:10;38.72;;;26.85;;
66169;SDS011;52971;44.024;20.456;2022-10-31T07:17:36;50.65;;;29.67;;
66169;SDS011;52971;44.024;20.456;2022-10-31T07:20:01;41.85;;;29.10;;
66169;SDS011;52971;44.024;20.456;2022-10-31T07:22:34;48.67;;;31.20;;
66169;SDS011;52971;44.024;20.456;2022-10-31T07:25:00;56.35;;;34.10;;
66169;SDS011;52971;44.024;20.456;2022-10-31T07:27:26;51.55;;;33.70;;
66169;SDS011;52971;44.024;20.456;2022-10-31T07:29:51;44.13;;;30.35;;
66169;SDS011;52971;44.024;20.456;2022-10-31T07:32:17;43.17;;;30.52;;
66169;SDS011;52971;44.024;20.456;2022-10-31T07:34:47;47.20;;;29.98;;
66169;SDS011;52971;44.024;20.456;2022-10-31T07:37:12;42.92;;;30.85;;
66169;SDS011;52971;44.024;20.456;2022-10-31T07:39:38;41.42;;;29.30;;
66169;SDS011;52971;44.024;20.456;2022-10-31T07:42:03;40.22;;;27.60;;
66169;SDS011;52971;44.024;20.456;2022-10-31T07:44:29;39.30;;;26.08;;
66169;SDS011;52971;44.024;20.456;2022-10-31T07:46:57;42.55;;;27.60;;
66169;SDS011;52971;44.024;20.456;2022-10-31T07:49:22;38.65;;;26.00;;
66169;SDS011;52971;44.024;20.456;2022-10-31T07:51:50;38.97;;;28.13;;
66169;SDS011;52971;44.024;20.456;2022-10-31T07:54:15;41.78;;;27.05;;
66169;SDS011;52971;44.024;20.456;2022-10-31T07:56:41;38.65;;;25.45;;
66169;SDS011;52971;44.024;20.456;2022-10-31T07:59:06;31.35;;;21.02;;
66169;SDS011;52971;44.024;20.456;2022-10-31T08:01:32;30.75;;;21.77;;
66169;SDS011;52971;44.024;20.456;2022-10-31T08:03:57;27.38;;;19.58;;
66169;SDS011;52971;44.024;20.456;2022-10-31T08:06:23;28.23;;;20.92;;
66169;SDS011;52971;44.024;20.456;2022-10-31T08:08:48;26.35;;;21.02;;
66169;SDS011;52971;44.024;20.456;2022-10-31T08:11:14;26.83;;;19.67;;
66169;SDS011;52971;44.024;20.456;2022-10-31T08:13:39;26.33;;;16.45;;
66169;SDS011;52971;44.024;20.456;2022-10-31T08:16:05;22.23;;;14.35;;
66169;SDS011;52971;44.024;20.456;2022-10-31T08:18:32;16.70;;;14.27;;
66169;SDS011;52971;44.024;20.456;2022-10-31T08:20:59;22.90;;;15.73;;
66169;SDS011;52971;44.024;20.456;2022-10-31T08:23:24;17.80;;;13.60;;
66169;SDS011;52971;44.024;20.456;2022-10-31T08:25:49;21.65;;;14.38;;
66169;SDS011;52971;44.024;20.456;2022-10-31T08:28:15;21.38;;;14.57;;
66169;SDS011;52971;44.024;20.456;2022-10-31T08:30:40;20.88;;;14.88;;
66169;SDS011;52971;44.024;20.456;2022-10-31T08:33:09;25.10;;;16.25;;
66169;SDS011;52971;44.024;20.456;2022-10-31T08:35:36;19.83;;;16.42;;
66169;SDS011;52971;44.024;20.456;2022-10-31T08:38:02;28.13;;;15.32;;
66169;SDS011;52971;44.024;20.456;2022-10-31T08:40:29;23.50;;;15.75;;
66169;SDS011;52971;44.024;20.456;2022-10-31T08:42:56;24.13;;;15.40;;
66169;SDS011;52971;44.024;20.456;2022-10-31T08:45:23;22.75;;;15.73;;
66169;SDS011;52971;44.024;20.456;2022-10-31T08:47:49;20.08;;;14.95;;
66169;SDS011;52971;44.024;20.456;2022-10-31T08:50:14;22.33;;;15.48;;
66169;SDS011;52971;44.024;20.456;2022-10-31T08:52:40;27.52;;;15.77;;
66169;SDS011;52971;44.024;20.456;2022-10-31T08:55:05;28.83;;;17.02;;
66169;SDS011;52971;44.024;20.456;2022-10-31T08:57:31;21.42;;;16.00;;
66169;SDS011;52971;44.024;20.456;2022-10-31T08:59:57;25.55;;;15.90;;
66169;SDS011;52971;44.024;20.456;2022-10-31T09:02:22;23.73;;;14.38;;
66169;SDS011;52971;44.024;20.456;2022-10-31T09:04:47;21.77;;;14.52;;
66169;SDS011;52971;44.024;20.456;2022-10-31T09:07:13;18.75;;;13.65;;
66169;SDS011;52971;44.024;20.456;2022-10-31T09:09:38;21.25;;;13.25;;
66169;SDS011;52971;44.024;20.456;2022-10-31T09:12:04;19.80;;;13.18;;
66169;SDS011;52971;44.024;20.456;2022-10-31T09:14:29;21.15;;;12.50;;
66169;SDS011;52971;44.024;20.456;2022-10-31T09:16:55;24.30;;;12.50;;
66169;SDS011;52971;44.024;20.456;2022-10-31T09:19:20;15.18;;;11.07;;
66169;SDS011;52971;44.024;20.456;2022-10-31T09:21:45;16.40;;;10.18;;
66169;SDS011;52971;44.024;20.456;2022-10-31T09:24:11;16.98;;;10.10;;
66169;SDS011;52971;44.024;20.456;2022-10-31T09:26:36;23.55;;;10.55;;
66169;SDS011;52971;44.024;20.456;2022-10-31T09:29:02;18.35;;;11.52;;
66169;SDS011;52971;44.024;20.456;2022-10-31T09:31:27;20.52;;;11.52;;
66169;SDS011;52971;44.024;20.456;2022-10-31T09:33:53;20.92;;;9.32;;
66169;SDS011;52971;44.024;20.456;2022-10-31T09:36:20;11.13;;;7.45;;
66169;SDS011;52971;44.024;20.456;2022-10-31T09:38:45;12.82;;;6.40;;
66169;SDS011;52971;44.024;20.456;2022-10-31T09:41:17;15.63;;;7.78;;
66169;SDS011;52971;44.024;20.456;2022-10-31T09:43:57;11.60;;;6.60;;
66169;SDS011;52971;44.024;20.456;2022-10-31T09:51:53;12.55;;;5.50;;
66169;SDS011;52971;44.024;20.456;2022-10-31T09:57:10;7.53;;;4.88;;
66169;SDS011;52971;44.024;20.456;2022-10-31T09:59:39;12.15;;;5.97;;
66169;SDS011;52971;44.024;20.456;2022-10-31T10:05:00;12.77;;;7.43;;
66169;SDS011;52971;44.024;20.456;2022-10-31T10:09:57;12.00;;;8.65;;
66169;SDS011;52971;44.024;20.456;2022-10-31T10:18:03;8.68;;;3.97;;
66169;SDS011;52971;44.024;20.456;2022-10-31T10:25:38;5.45;;;3.60;;
66169;SDS011;52971;44.024;20.456;2022-10-31T10:36:44;7.15;;;3.53;;
66169;SDS011;52971;44.024;20.456;2022-10-31T10:39:26;10.10;;;3.78;;
66169;SDS011;52971;44.024;20.456;2022-10-31T10:41:57;12.15;;;4.35;;
66169;SDS011;52971;44.024;20.456;2022-10-31T10:44:44;8.60;;;3.63;;
66169;SDS011;52971;44.024;20.456;2022-10-31T10:47:33;7.32;;;2.55;;
66169;SDS011;52971;44.024;20.456;2022-10-31T10:55:32;10.77;;;3.13;;
66169;SDS011;52971;44.024;20.456;2022-10-31T10:58:08;5.18;;;2.15;;
66169;SDS011;52971;44.024;20.456;2022-10-31T11:00:39;3.72;;;1.55;;
66169;SDS011;52971;44.024;20.456;2022-10-31T11:03:06;9.65;;;2.00;;
66169;SDS011;52971;44.024;20.456;2022-10-31T11:08:10;6.20;;;2.00;;
66169;SDS011;52971;44.024;20.456;2022-10-31T11:10:36;6.28;;;2.35;;
66169;SDS011;52971;44.024;20.456;2022-10-31T11:15:55;7.95;;;2.08;;
66169;SDS011;52971;44.024;20.456;2022-10-31T11:18:30;5.90;;;1.85;;
66169;SDS011;52971;44.024;20.456;2022-10-31T11:20:58;11.43;;;2.55;;
66169;SDS011;52971;44.024;20.456;2022-10-31T11:23:25;3.60;;;1.70;;
66169;SDS011;52971;44.024;20.456;2022-10-31T11:25:54;4.40;;;1.55;;
66169;SDS011;52971;44.024;20.456;2022-10-31T11:28:20;4.50;;;2.05;;
66169;SDS011;52971;44.024;20.456;2022-10-31T11:33:18;4.13;;;1.40;;
66169;SDS011;52971;44.024;20.456;2022-10-31T11:35:48;3.83;;;1.52;;
66169;SDS011;52971;44.024;20.456;2022-10-31T11:38:18;4.55;;;2.60;;
66169;SDS011;52971;44.024;20.456;2022-10-31T11:40:56;4.75;;;1.55;;
66169;SDS011;52971;44.024;20.456;2022-10-31T11:43:25;5.30;;;1.50;;
66169;SDS011;52971;44.024;20.456;2022-10-31T11:45:52;10.57;;;2.65;;
66169;SDS011;52971;44.024;20.456;2022-10-31T11:48:22;3.83;;;1.52;;
66169;SDS011;52971;44.024;20.456;2022-10-31T11:50:54;4.20;;;1.15;;
66169;SDS011;52971;44.024;20.456;2022-10-31T11:53:32;3.25;;;0.60;;
66169;SDS011;52971;44.024;20.456;2022-10-31T11:58:30;3.85;;;0.80;;
66169;SDS011;52971;44.024;20.456;2022-10-31T12:00:56;6.00;;;1.00;;
66169;SDS011;52971;44.024;20.456;2022-10-31T12:08:20;4.63;;;2.10;;
66169;SDS011;52971;44.024;20.456;2022-10-31T12:22:19;4.55;;;1.63;;
66169;SDS011;52971;44.024;20.456;2022-10-31T12:27:26;3.30;;;1.02;;
66169;SDS011;52971;44.024;20.456;2022-10-31T12:30:08;6.72;;;0.80;;
66169;SDS011;52971;44.024;20.456;2022-10-31T12:38:47;7.90;;;6.10;;
66169;SDS011;52971;44.024;20.456;2022-10-31T12:44:04;6.50;;;3.75;;
66169;SDS011;52971;44.024;20.456;2022-10-31T12:57:44;4.70;;;1.27;;
66169;SDS011;52971;44.024;20.456;2022-10-31T13:00:16;4.38;;;0.60;;
66169;SDS011;52971;44.024;20.456;2022-10-31T13:13:41;4.75;;;0.50;;
66169;SDS011;52971;44.024;20.456;2022-10-31T13:16:31;9.75;;;1.20;;
66169;SDS011;52971;44.024;20.456;2022-10-31T13:19:04;5.05;;;0.70;;
66169;SDS011;52971;44.024;20.456;2022-10-31T13:30:24;2.92;;;0.68;;
66169;SDS011;52971;44.024;20.456;2022-10-31T13:33:02;4.68;;;1.02;;
66169;SDS011;52971;44.024;20.456;2022-10-31T13:35:37;4.97;;;1.17;;
66169;SDS011;52971;44.024;20.456;2022-10-31T13:38:19;5.63;;;1.20;;
66169;SDS011;52971;44.024;20.456;2022-10-31T13:46:01;4.38;;;1.88;;
66169;SDS011;52971;44.024;20.456;2022-10-31T13:50:59;6.25;;;0.88;;
66169;SDS011;52971;44.024;20.456;2022-10-31T13:56:11;4.18;;;0.70;;
66169;SDS011;52971;44.024;20.456;2022-10-31T13:58:42;10.82;;;1.67;;
66169;SDS011;52971;44.024;20.456;2022-10-31T14:01:29;15.20;;;2.97;;
66169;SDS011;52971;44.024;20.456;2022-10-31T14:04:04;11.65;;;2.75;;
66169;SDS011;52971;44.024;20.456;2022-10-31T14:06:42;5.38;;;0.80;;
66169;SDS011;52971;44.024;20.456;2022-10-31T14:09:21;11.02;;;1.70;;
66169;SDS011;52971;44.024;20.456;2022-10-31T14:11:52;7.68;;;1.48;;
66169;SDS011;52971;44.024;20.456;2022-10-31T14:14:19;11.48;;;2.25;;
66169;SDS011;52971;44.024;20.456;2022-10-31T14:16:52;6.65;;;1.67;;
66169;SDS011;52971;44.024;20.456;2022-10-31T14:19:20;8.17;;;1.73;;
66169;SDS011;52971;44.024;20.456;2022-10-31T14:21:47;15.63;;;2.45;;
66169;SDS011;52971;44.024;20.456;2022-10-31T14:24:14;5.25;;;0.80;;
66169;SDS011;52971;44.024;20.456;2022-10-31T14:27:05;5.30;;;1.55;;
66169;SDS011;52971;44.024;20.456;2022-10-31T14:29:51;11.23;;;3.10;;
66169;SDS011;52971;44.024;20.456;2022-10-31T14:37:25;5.68;;;2.05;;
66169;SDS011;52971;44.024;20.456;2022-10-31T14:45:59;9.60;;;3.55;;
66169;SDS011;52971;44.024;20.456;2022-10-31T14:48:41;13.40;;;5.25;;
66169;SDS011;52971;44.024;20.456;2022-10-31T14:51:18;15.68;;;6.18;;
66169;SDS011;52971;44.024;20.456;2022-10-31T14:53:49;12.95;;;6.05;;
66169;SDS011;52971;44.024;20.456;2022-10-31T14:56:19;11.45;;;5.35;;
66169;SDS011;52971;44.024;20.456;2022-10-31T14:58:52;11.18;;;3.67;;
66169;SDS011;52971;44.024;20.456;2022-10-31T15:03:48;15.07;;;8.20;;
66169;SDS011;52971;44.024;20.456;2022-10-31T15:06:15;15.48;;;8.48;;
66169;SDS011;52971;44.024;20.456;2022-10-31T15:08:47;21.85;;;10.52;;
66169;SDS011;52971;44.024;20.456;2022-10-31T15:11:18;29.85;;;18.15;;
66169;SDS011;52971;44.024;20.456;2022-10-31T15:13:52;23.48;;;14.68;;
66169;SDS011;52971;44.024;20.456;2022-10-31T15:16:24;37.58;;;17.98;;
66169;SDS011;52971;44.024;20.456;2022-10-31T15:18:58;34.60;;;17.73;;
66169;SDS011;52971;44.024;20.456;2022-10-31T15:21:26;34.85;;;19.83;;
66169;SDS011;52971;44.024;20.456;2022-10-31T15:23:54;40.17;;;24.63;;
66169;SDS011;52971;44.024;20.456;2022-10-31T15:26:25;62.20;;;36.60;;
66169;SDS011;52971;44.024;20.456;2022-10-31T15:29:13;66.20;;;43.50;;
66169;SDS011;52971;44.024;20.456;2022-10-31T15:31:50;123.63;;;85.38;;
66169;SDS011;52971;44.024;20.456;2022-10-31T15:34:19;107.65;;;72.60;;
66169;SDS011;52971;44.024;20.456;2022-10-31T15:36:48;104.93;;;74.65;;
66169;SDS011;52971;44.024;20.456;2022-10-31T15:39:16;92.75;;;65.38;;
66169;SDS011;52971;44.024;20.456;2022-10-31T15:41:49;91.68;;;62.60;;
66169;SDS011;52971;44.024;20.456;2022-10-31T15:44:16;84.63;;;54.95;;
66169;SDS011;52971;44.024;20.456;2022-10-31T15:46:51;62.33;;;42.55;;
66169;SDS011;52971;44.024;20.456;2022-10-31T15:49:37;47.17;;;30.88;;
66169;SDS011;52971;44.024;20.456;2022-10-31T15:54:45;58.38;;;39.05;;
66169;SDS011;52971;44.024;20.456;2022-10-31T15:57:15;88.45;;;58.33;;
66169;SDS011;52971;44.024;20.456;2022-10-31T15:59:42;145.45;;;98.57;;
66169;SDS011;52971;44.024;20.456;2022-10-31T16:02:11;113.65;;;71.80;;
66169;SDS011;52971;44.024;20.456;2022-10-31T16:04:47;124.40;;;75.00;;
66169;SDS011;52971;44.024;20.456;2022-10-31T16:07:14;136.93;;;88.50;;
66169;SDS011;52971;44.024;20.456;2022-10-31T16:09:52;100.47;;;64.00;;
66169;SDS011;52971;44.024;20.456;2022-10-31T16:12:18;108.05;;;69.47;;
66169;SDS011;52971;44.024;20.456;2022-10-31T16:14:44;98.78;;;62.85;;
66169;SDS011;52971;44.024;20.456;2022-10-31T16:17:13;84.35;;;52.53;;
66169;SDS011;52971;44.024;20.456;2022-10-31T16:19:47;82.20;;;51.50;;
66169;SDS011;52971;44.024;20.456;2022-10-31T16:22:23;67.75;;;39.92;;
66169;SDS011;52971;44.024;20.456;2022-10-31T16:24:54;67.20;;;40.05;;
66169;SDS011;52971;44.024;20.456;2022-10-31T16:27:27;70.85;;;41.50;;
66169;SDS011;52971;44.024;20.456;2022-10-31T16:29:55;73.70;;;43.08;;
66169;SDS011;52971;44.024;20.456;2022-10-31T16:35:28;68.75;;;40.65;;
66169;SDS011;52971;44.024;20.456;2022-10-31T16:37:58;72.43;;;42.15;;
66169;SDS011;52971;44.024;20.456;2022-10-31T16:40:23;63.15;;;39.90;;
66169;SDS011;52971;44.024;20.456;2022-10-31T16:42:49;54.45;;;36.97;;
66169;SDS011;52971;44.024;20.456;2022-10-31T16:45:19;60.00;;;37.90;;
66169;SDS011;52971;44.024;20.456;2022-10-31T16:47:45;60.72;;;37.67;;
66169;SDS011;52971;44.024;20.456;2022-10-31T16:50:18;66.35;;;41.83;;
66169;SDS011;52971;44.024;20.456;2022-10-31T16:52:46;71.75;;;46.70;;
66169;SDS011;52971;44.024;20.456;2022-10-31T16:55:15;74.38;;;47.80;;
66169;SDS011;52971;44.024;20.456;2022-10-31T16:57:46;77.43;;;56.00;;
66169;SDS011;52971;44.024;20.456;2022-10-31T17:00:17;79.45;;;56.55;;
66169;SDS011;52971;44.024;20.456;2022-10-31T17:02:45;67.72;;;50.92;;
66169;SDS011;52971;44.024;20.456;2022-10-31T17:05:13;76.22;;;53.25;;
66169;SDS011;52971;44.024;20.456;2022-10-31T17:07:40;71.07;;;52.95;;
66169;SDS011;52971;44.024;20.456;2022-10-31T17:10:06;64.88;;;49.95;;